createdAt,value
2023-05-08T00:00:47.121Z,74.32
2023-05-08T00:03:20.237Z,70.70
2023-05-08T00:05:55.393Z,75.01
2023-05-08T00:08:29.338Z,69.45
2023-05-08T00:11:02.403Z,70.73
2023-05-08T00:13:35.531Z,73.38
2023-05-08T00:16:11.644Z,74.69
2023-05-08T00:18:44.943Z,75.91
2023-05-08T00:21:17.794Z,74.61
2023-05-08T00:23:50.648Z,74.96
2023-05-08T00:26:23.608Z,71.09
2023-05-08T00:28:56.542Z,72.50
2023-05-08T00:31:30.766Z,73.10
2023-05-08T00:34:03.803Z,78.06
2023-05-08T00:36:36.712Z,73.21
2023-05-08T00:39:09.647Z,73.15
2023-05-08T00:41:42.673Z,75.06
2023-05-08T00:44:15.566Z,75.83
2023-05-08T00:46:50.172Z,73.38
2023-05-08T00:49:23.556Z,77.16
2023-05-08T00:51:57.589Z,73.68
2023-05-08T00:54:30.956Z,74.32
2023-05-08T00:57:04.108Z,78.38
2023-05-08T00:59:38.049Z,72.26
2023-05-08T01:02:13.071Z,74.79
2023-05-08T01:04:47.389Z,72.10
2023-05-08T01:07:20.377Z,73.58
2023-05-08T01:09:53.356Z,73.60
2023-05-08T01:12:31.215Z,74.08
2023-05-08T01:15:09.842Z,73.60
2023-05-08T01:17:48.747Z,75.85
2023-05-08T01:20:27.582Z,73.14
2023-05-08T01:23:27.628Z,73.63
2023-05-08T01:26:20.613Z,71.96
2023-05-08T01:29:11.475Z,72.93
2023-05-08T01:31:52.977Z,71.55
2023-05-08T01:34:31.892Z,73.86
2023-05-08T01:37:06.536Z,71.59
2023-05-08T01:39:44.647Z,69.37
2023-05-08T01:42:20.005Z,72.47
2023-05-08T01:44:55.970Z,70.12
2023-05-08T01:47:31.170Z,69.73
2023-05-08T01:50:08.949Z,69.91
2023-05-08T01:52:44.785Z,70.18
2023-05-08T01:55:21.427Z,72.34
2023-05-08T01:57:55.922Z,70.43
2023-05-08T02:00:29.582Z,70.58
2023-05-08T02:03:03.715Z,68.31
2023-05-08T02:05:38.334Z,70.75
2023-05-08T02:08:12.940Z,72.76
2023-05-08T02:10:47.496Z,76.64
2023-05-08T02:13:22.440Z,76.40
2023-05-08T02:15:56.190Z,78.53
2023-05-08T02:18:31.106Z,75.43
2023-05-08T02:21:06.633Z,79.11
2023-05-08T02:23:39.573Z,77.47
2023-05-08T02:26:14.106Z,80.09
2023-05-08T02:28:47.219Z,79.71
2023-05-08T02:31:20.391Z,81.02
2023-05-08T02:33:53.833Z,79.74
2023-05-08T02:36:29.514Z,73.11
2023-05-08T02:39:03.892Z,70.26
2023-05-08T02:41:38.430Z,72.12
2023-05-08T02:44:11.364Z,71.44
2023-05-08T02:46:48.300Z,69.85
2023-05-08T02:49:27.135Z,72.24
2023-05-08T02:52:06.860Z,71.50
2023-05-08T02:54:43.445Z,68.96
2023-05-08T02:57:23.031Z,74.19
2023-05-08T02:59:58.725Z,76.19
2023-05-08T03:02:36.567Z,74.04
2023-05-08T03:05:18.281Z,72.66
2023-05-08T03:07:54.314Z,69.85
2023-05-08T03:10:35.152Z,71.97
2023-05-08T03:13:10.598Z,68.86
2023-05-08T03:15:44.608Z,70.48
2023-05-08T03:18:19.049Z,68.06
2023-05-08T03:20:55.512Z,69.62
2023-05-08T03:23:31.099Z,76.05
2023-05-08T03:26:04.322Z,77.94
2023-05-08T03:28:37.793Z,79.11
2023-05-08T03:31:12.725Z,79.79
2023-05-08T03:33:46.312Z,80.14
2023-05-08T03:36:19.419Z,81.85
2023-05-08T03:38:53.758Z,80.66
2023-05-08T03:41:26.989Z,80.44
2023-05-08T03:44:00.455Z,80.90
2023-05-08T03:46:34.151Z,80.25
2023-05-08T03:49:10.108Z,80.98
2023-05-08T03:51:43.748Z,79.53
2023-05-08T03:54:19.934Z,81.63
2023-05-08T03:56:53.393Z,79.49
2023-05-08T03:59:30.829Z,79.61
2023-05-08T04:02:10.434Z,79.79
2023-05-08T04:04:45.675Z,80.62
2023-05-08T04:07:25.955Z,81.99
2023-05-08T04:10:04.829Z,79.28
2023-05-08T04:12:40.923Z,80.75
2023-05-08T04:15:18.849Z,78.38
2023-05-08T04:17:55.864Z,78.66
2023-05-08T04:20:30.587Z,78.71
2023-05-08T04:23:05.195Z,77.76
2023-05-08T04:25:40.193Z,77.88
2023-05-08T04:28:13.189Z,79.36
2023-05-08T04:30:46.234Z,78.11
2023-05-08T04:33:19.498Z,77.05
2023-05-08T04:35:52.609Z,78.77
2023-05-08T04:38:25.526Z,77.90
2023-05-08T04:41:00.022Z,77.89
2023-05-08T04:43:33.014Z,79.69
2023-05-08T04:46:06.860Z,79.74
2023-05-08T04:48:40.178Z,81.08
2023-05-08T04:51:13.280Z,80.35
2023-05-08T04:53:46.433Z,80.69
2023-05-08T04:56:20.926Z,80.71
2023-05-08T04:58:54.128Z,79.36
2023-05-08T05:01:27.080Z,78.89
2023-05-08T05:04:02.198Z,80.01
2023-05-08T05:06:35.517Z,81.92
2023-05-08T05:09:08.465Z,77.00
2023-05-08T05:11:42.910Z,77.40
2023-05-08T05:14:15.820Z,75.59
2023-05-08T05:16:50.547Z,74.86
2023-05-08T05:19:23.606Z,72.15
2023-05-08T05:21:56.485Z,73.70
2023-05-08T05:24:29.345Z,73.06
2023-05-08T05:27:04.646Z,72.51
2023-05-08T05:29:37.833Z,73.32
2023-05-08T05:32:11.702Z,72.51
2023-05-08T05:34:44.559Z,72.86
2023-05-08T05:37:17.330Z,73.92
2023-05-08T05:39:50.361Z,69.71
2023-05-08T05:42:24.623Z,69.40
2023-05-08T05:44:57.797Z,70.49
2023-05-08T05:47:30.794Z,70.46
2023-05-08T05:50:03.706Z,71.62
2023-05-08T05:52:36.638Z,71.69
2023-05-08T05:55:09.707Z,71.64
2023-05-08T05:57:44.024Z,72.62
2023-05-08T06:00:17.655Z,68.20
2023-05-08T06:02:50.707Z,70.84
2023-05-08T06:05:24.021Z,68.65
2023-05-08T06:07:57.293Z,69.33
2023-05-08T06:10:30.207Z,68.99
2023-05-08T06:13:04.524Z,68.98
2023-05-08T06:15:37.578Z,72.92
2023-05-08T06:18:10.774Z,67.17
2023-05-08T06:20:43.906Z,68.83
2023-05-08T06:23:16.757Z,67.08
2023-05-08T06:25:49.615Z,69.33
2023-05-08T06:28:26.071Z,67.65
2023-05-08T06:30:59.404Z,68.02
2023-05-08T06:33:32.331Z,67.84
2023-05-08T06:36:06.213Z,70.76
2023-05-08T06:38:39.137Z,67.39
2023-05-08T06:41:14.527Z,73.59
2023-05-08T06:43:49.610Z,64.53
2023-05-08T06:46:22.766Z,63.40
2023-05-08T06:48:55.717Z,64.49
2023-05-08T06:51:28.614Z,74.49
2023-05-08T06:54:01.540Z,70.51
2023-05-08T06:56:35.176Z,61.18
2023-05-08T06:59:09.525Z,70.78
2023-05-08T07:01:42.823Z,66.15
2023-05-08T07:04:16.012Z,62.20
2023-05-08T07:06:48.854Z,60.64
2023-05-08T07:09:21.654Z,60.87
2023-05-08T07:11:54.498Z,63.07
2023-05-08T07:14:28.807Z,69.01
2023-05-08T07:17:06.810Z,60.51
2023-05-08T07:19:39.884Z,62.68
2023-05-08T07:22:13.066Z,69.50
2023-05-08T07:24:46.613Z,63.01
2023-05-08T07:27:20.297Z,62.57
2023-05-08T07:29:54.644Z,64.61
2023-05-08T07:32:27.525Z,73.82
2023-05-08T07:35:00.605Z,67.82
2023-05-08T07:37:33.927Z,64.53
2023-05-08T07:40:07.752Z,62.37
2023-05-08T07:42:42.201Z,71.79
2023-05-08T07:45:16.865Z,68.91
2023-05-08T07:47:50.681Z,60.90
2023-05-08T07:50:24.023Z,62.87
2023-05-08T07:52:57.619Z,61.93
2023-05-08T07:55:30.700Z,62.37
2023-05-08T07:58:03.674Z,65.90
2023-05-08T08:00:39.099Z,62.33
2023-05-08T08:03:12.134Z,62.52
2023-05-08T08:05:45.326Z,62.70
2023-05-08T08:08:18.391Z,63.06
2023-05-08T08:10:51.787Z,73.16
2023-05-08T08:13:25.105Z,61.28
2023-05-08T08:15:59.594Z,62.34
2023-05-08T08:18:35.149Z,62.86
2023-05-08T08:21:08.458Z,71.42
2023-05-08T08:23:41.430Z,63.98
2023-05-08T08:26:14.730Z,59.89
2023-05-08T08:28:47.718Z,59.54
2023-05-08T08:31:21.966Z,60.99
2023-05-08T08:33:54.877Z,72.47
2023-05-08T08:36:28.163Z,64.77
2023-05-08T08:39:01.167Z,59.44
2023-05-08T08:41:34.222Z,59.72
2023-05-08T08:44:07.625Z,60.66
2023-05-08T08:46:50.862Z,60.83
2023-05-08T08:49:26.093Z,60.91
2023-05-08T08:52:00.909Z,65.26
2023-05-08T08:54:35.998Z,59.01
2023-05-08T08:57:10.930Z,60.21
2023-05-08T08:59:44.670Z,62.78
2023-05-08T09:02:20.270Z,69.59
2023-05-08T09:04:53.444Z,66.50
2023-05-08T09:07:26.922Z,58.69
2023-05-08T09:10:00.611Z,60.06
2023-05-08T09:12:34.661Z,62.99
2023-05-08T09:15:08.030Z,64.83
2023-05-08T09:17:42.722Z,59.84
2023-05-08T09:20:16.222Z,64.47
2023-05-08T09:22:50.086Z,62.50
2023-05-08T09:25:23.091Z,58.55
2023-05-08T09:28:16.130Z,64.15
2023-05-08T09:30:53.316Z,62.88
2023-05-08T09:33:28.277Z,59.39
2023-05-08T09:36:01.433Z,62.58
2023-05-08T09:38:35.285Z,58.49
2023-05-08T09:41:09.649Z,62.89
2023-05-08T09:43:43.006Z,62.96
2023-05-08T09:46:23.500Z,60.08
2023-05-08T09:48:59.911Z,58.32
2023-05-08T09:51:33.193Z,57.69
2023-05-08T09:54:18.130Z,62.13
2023-05-08T09:56:51.192Z,62.81
2023-05-08T09:59:25.069Z,62.47
2023-05-08T10:01:58.003Z,56.17
2023-05-08T10:04:35.209Z,56.51
2023-05-08T10:07:08.148Z,60.51
2023-05-08T10:09:50.356Z,61.22
2023-05-08T10:12:23.985Z,62.27
2023-05-08T10:14:57.075Z,57.51
2023-05-08T10:17:37.004Z,58.54
2023-05-08T10:20:13.084Z,57.44
2023-05-08T10:22:46.855Z,56.50
2023-05-08T10:25:21.893Z,58.64
2023-05-08T10:27:57.436Z,56.82
2023-05-08T10:30:32.009Z,56.41
2023-05-08T10:33:09.442Z,56.95
2023-05-08T10:35:43.997Z,56.17
2023-05-08T10:38:17.891Z,55.27
2023-05-08T10:40:53.451Z,55.76
2023-05-08T10:43:26.432Z,56.68
2023-05-08T10:45:59.646Z,56.14
2023-05-08T10:48:36.687Z,57.90
2023-05-08T10:51:14.911Z,54.69
2023-05-08T10:53:52.292Z,51.58
2023-05-08T10:56:28.646Z,53.27
2023-05-08T10:59:01.657Z,52.66
2023-05-08T11:01:34.979Z,56.28
2023-05-08T11:04:20.703Z,51.64
2023-05-08T11:06:55.367Z,51.87
2023-05-08T11:09:29.870Z,52.94
2023-05-08T11:12:08.620Z,56.60
2023-05-08T11:14:43.728Z,51.69
2023-05-08T11:17:24.025Z,55.50
2023-05-08T11:19:58.305Z,52.31
2023-05-08T11:22:33.292Z,52.79
2023-05-08T11:25:07.179Z,53.42
2023-05-08T11:27:42.565Z,53.59
2023-05-08T11:30:23.030Z,53.78
2023-05-08T11:32:59.856Z,53.78
2023-05-08T11:35:42.557Z,52.90
2023-05-08T11:38:18.018Z,56.98
2023-05-08T11:40:56.033Z,52.63
2023-05-08T11:43:47.250Z,53.49
2023-05-08T11:46:21.550Z,54.03
2023-05-08T11:49:01.311Z,53.85
2023-05-08T11:51:37.268Z,55.44
2023-05-08T11:54:11.750Z,52.42
2023-05-08T11:56:47.707Z,51.96
2023-05-08T11:59:21.730Z,51.53
2023-05-08T12:04:31.154Z,52.72
2023-05-08T12:07:04.078Z,54.74
2023-05-08T12:09:38.679Z,54.83
2023-05-08T12:12:11.608Z,51.49
2023-05-08T12:14:44.402Z,51.24
2023-05-08T12:17:18.213Z,54.61
2023-05-08T12:19:55.499Z,52.14
2023-05-08T12:22:28.430Z,50.93
2023-05-08T12:25:04.221Z,51.91
2023-05-08T12:27:37.671Z,53.69
2023-05-08T12:30:11.869Z,54.03
2023-05-08T12:32:45.574Z,49.95
2023-05-08T12:35:19.882Z,54.94
2023-05-08T12:37:53.480Z,50.60
2023-05-08T12:40:29.084Z,49.95
2023-05-08T12:43:02.814Z,50.04
2023-05-08T12:45:38.684Z,50.30
2023-05-08T12:48:12.275Z,55.02
2023-05-08T12:50:46.118Z,50.26
2023-05-08T12:53:19.926Z,56.89
2023-05-08T12:55:54.680Z,53.14
2023-05-08T12:58:27.904Z,51.89
2023-05-08T13:01:10.005Z,52.37
2023-05-08T13:03:43.154Z,52.94
2023-05-08T13:06:25.323Z,53.09
2023-05-08T13:08:58.203Z,50.67
2023-05-08T13:11:34.397Z,49.71
2023-05-08T13:14:07.561Z,52.30
2023-05-08T13:16:44.267Z,53.88
2023-05-08T13:19:17.936Z,50.55
2023-05-08T13:21:52.939Z,49.88
2023-05-08T13:24:26.906Z,49.21
2023-05-08T13:27:02.053Z,54.14
2023-05-08T13:29:35.246Z,49.85
2023-05-08T13:32:08.513Z,49.03
2023-05-08T13:34:47.637Z,53.03
2023-05-08T13:37:23.886Z,50.98
2023-05-08T13:39:56.751Z,50.72
2023-05-08T13:42:31.006Z,50.04
2023-05-08T13:45:04.021Z,50.48
2023-05-08T13:47:36.966Z,50.34
2023-05-08T13:50:10.469Z,53.55
2023-05-08T13:52:43.799Z,55.31
2023-05-08T13:55:17.182Z,53.15
2023-05-08T13:57:51.633Z,55.90
2023-05-08T14:00:26.007Z,50.45
2023-05-08T14:03:01.162Z,51.12
2023-05-08T14:05:33.989Z,54.14
2023-05-08T14:08:06.912Z,54.31
2023-05-08T14:10:40.844Z,55.83
2023-05-08T14:13:15.484Z,53.31
2023-05-08T14:15:48.462Z,55.73
2023-05-08T14:18:21.652Z,55.62
2023-05-08T14:20:57.370Z,54.84
2023-05-08T14:23:30.553Z,52.29
2023-05-08T14:26:03.609Z,51.70
2023-05-08T14:28:38.082Z,54.86
2023-05-08T14:31:10.972Z,53.32
2023-05-08T14:33:44.084Z,52.15
2023-05-08T14:36:17.025Z,54.07
2023-05-08T14:38:49.921Z,55.44
2023-05-08T14:41:22.845Z,51.76
2023-05-08T14:43:57.296Z,53.54
2023-05-08T14:46:30.436Z,55.86
2023-05-08T14:49:04.427Z,51.86
2023-05-08T14:51:37.236Z,51.17
2023-05-08T14:54:10.249Z,54.91
2023-05-08T14:56:47.110Z,53.84
2023-05-08T14:59:38.694Z,54.96
2023-05-08T15:02:18.091Z,56.20
2023-05-08T15:04:51.354Z,51.27
2023-05-08T15:07:24.286Z,50.87
2023-05-08T15:09:57.361Z,51.15
2023-05-08T15:12:30.406Z,52.09
2023-05-08T15:15:05.123Z,53.12
2023-05-08T15:17:38.028Z,53.25
2023-05-08T15:20:11.343Z,53.57
2023-05-08T15:22:45.447Z,53.61
2023-05-08T15:25:18.471Z,51.08
2023-05-08T15:27:52.925Z,53.19
2023-05-08T15:30:27.206Z,56.74
2023-05-08T15:33:00.114Z,51.67
2023-05-08T15:35:33.425Z,52.43
2023-05-08T15:38:08.967Z,52.41
2023-05-08T15:40:41.972Z,53.29
2023-05-08T15:43:14.971Z,54.45
2023-05-08T15:45:49.460Z,53.48
2023-05-08T15:48:22.541Z,52.20
2023-05-08T15:50:55.494Z,51.89
2023-05-08T15:53:28.558Z,55.94
2023-05-08T15:56:03.615Z,51.95
2023-05-08T15:58:38.982Z,52.22
2023-05-08T16:01:13.588Z,52.56
2023-05-08T16:03:46.587Z,57.86
2023-05-08T16:06:19.943Z,59.80
2023-05-08T16:08:53.129Z,59.39
2023-05-08T16:11:26.026Z,61.33
2023-05-08T16:13:59.035Z,62.29
2023-05-08T16:16:33.455Z,59.30
2023-05-08T16:19:06.344Z,60.87
2023-05-08T16:21:40.517Z,61.35
2023-05-08T16:24:13.452Z,61.99
2023-05-08T16:26:46.628Z,62.71
2023-05-08T16:29:19.912Z,63.15
2023-05-08T16:31:55.050Z,63.26
2023-05-08T16:34:28.579Z,62.74
2023-05-08T16:37:02.934Z,62.54
2023-05-08T16:39:36.676Z,62.78
2023-05-08T16:42:10.539Z,62.76
2023-05-08T16:44:44.379Z,66.07
2023-05-08T16:47:19.828Z,65.23
2023-05-08T16:49:54.658Z,64.35
2023-05-08T16:52:28.902Z,67.97
2023-05-08T16:55:02.378Z,69.53
2023-05-08T16:57:35.743Z,67.34
2023-05-08T17:00:10.038Z,64.89
2023-05-08T17:02:45.561Z,70.58
2023-05-08T17:05:19.755Z,69.37
2023-05-08T17:07:54.475Z,66.70
2023-05-08T17:10:28.312Z,66.88
2023-05-08T17:13:02.293Z,67.65
2023-05-08T17:15:36.281Z,68.01
2023-05-08T17:18:11.560Z,64.84
2023-05-08T17:20:45.482Z,66.63
2023-05-08T17:23:19.718Z,69.92
2023-05-08T17:25:58.093Z,69.17
2023-05-08T17:28:32.021Z,65.92
2023-05-08T17:31:06.067Z,64.22
2023-05-08T17:33:41.955Z,68.55
2023-05-08T17:36:15.804Z,63.30
2023-05-08T17:38:51.372Z,67.79
2023-05-08T17:41:25.152Z,65.73
2023-05-08T17:43:58.923Z,68.99
2023-05-08T17:46:32.767Z,66.84
2023-05-08T17:49:09.057Z,64.26
2023-05-08T17:51:43.243Z,64.82
2023-05-08T17:54:17.273Z,65.94
2023-05-08T17:56:50.432Z,61.86
2023-05-08T17:59:24.271Z,70.10
2023-05-08T18:01:58.101Z,60.37
2023-05-08T18:04:35.523Z,61.15
2023-05-08T18:07:08.792Z,61.74
2023-05-08T18:09:44.906Z,71.40
2023-05-08T18:12:17.760Z,57.21
2023-05-08T18:14:51.089Z,64.45
2023-05-08T18:17:29.564Z,67.13
2023-05-08T18:20:07.758Z,62.54
2023-05-08T18:22:40.840Z,58.07
2023-05-08T18:25:14.049Z,58.28
2023-05-08T18:27:59.010Z,61.45
2023-05-08T18:30:36.479Z,58.03
2023-05-08T18:33:09.489Z,58.85
2023-05-08T18:35:43.919Z,66.89
2023-05-08T18:38:17.823Z,62.11
2023-05-08T18:40:50.922Z,63.43
2023-05-08T18:43:23.915Z,67.25
2023-05-08T18:45:57.738Z,75.23
2023-05-08T18:48:30.870Z,77.36
2023-05-08T18:51:05.427Z,76.62
2023-05-08T18:53:39.023Z,82.19
2023-05-08T18:56:12.780Z,79.87
2023-05-08T18:58:46.539Z,87.39
2023-05-08T19:01:21.304Z,81.73
2023-05-08T19:03:54.715Z,83.72
2023-05-08T19:06:31.681Z,87.71
2023-05-08T19:09:07.968Z,85.17
2023-05-08T19:11:41.601Z,81.72
2023-05-08T19:14:14.793Z,88.28
2023-05-08T19:16:49.723Z,85.75
2023-05-08T19:19:22.752Z,84.66
2023-05-08T19:21:57.619Z,84.02
2023-05-08T19:24:32.119Z,87.40
2023-05-08T19:27:05.272Z,87.14
2023-05-08T19:29:38.277Z,84.47
2023-05-08T19:32:11.706Z,82.48
2023-05-08T19:34:47.969Z,88.28
2023-05-08T19:37:27.445Z,87.92
2023-05-08T19:40:00.552Z,94.53
2023-05-08T19:42:51.054Z,90.20
2023-05-08T19:45:38.954Z,88.13
2023-05-08T19:48:26.838Z,93.44
2023-05-08T19:51:06.365Z,89.56
2023-05-08T19:53:41.396Z,87.58
2023-05-08T19:56:15.368Z,87.82
2023-05-08T19:58:48.747Z,91.45
2023-05-08T20:01:25.843Z,89.41
2023-05-08T20:04:00.723Z,91.87
2023-05-08T20:06:34.018Z,89.89
2023-05-08T20:09:10.523Z,92.00
2023-05-08T20:11:43.598Z,94.38
2023-05-08T20:14:16.899Z,90.31
2023-05-08T20:16:49.878Z,93.22
2023-05-08T20:19:22.988Z,89.58
2023-05-08T20:21:55.872Z,91.71
2023-05-08T20:24:30.136Z,93.03
2023-05-08T20:27:03.357Z,93.08
2023-05-08T20:29:36.427Z,92.75
2023-05-08T20:32:14.422Z,96.97
2023-05-08T20:34:47.637Z,95.88
2023-05-08T20:37:20.998Z,95.00
2023-05-08T20:39:55.185Z,93.28
2023-05-08T20:42:27.965Z,92.19
2023-05-08T20:45:01.020Z,93.76
2023-05-08T20:47:33.951Z,94.98
2023-05-08T20:50:07.576Z,95.33
2023-05-08T20:52:42.358Z,99.71
2023-05-08T20:55:16.795Z,95.85
2023-05-08T20:57:49.694Z,94.36
2023-05-08T21:00:22.560Z,98.65
2023-05-08T21:02:55.497Z,100.00
2023-05-08T21:05:28.528Z,93.11
2023-05-08T21:08:03.478Z,93.84
2023-05-08T21:10:37.906Z,99.97
2023-05-08T21:13:10.873Z,98.85
2023-05-08T21:15:43.748Z,95.20
2023-05-08T21:18:16.924Z,100.00
2023-05-08T21:20:50.854Z,99.52
2023-05-08T21:23:23.836Z,98.44
2023-05-08T21:25:57.999Z,98.66
2023-05-08T21:28:30.950Z,95.46
2023-05-08T21:31:03.802Z,94.61
2023-05-08T21:33:37.615Z,96.60
2023-05-08T21:36:10.559Z,97.62
2023-05-08T21:38:43.504Z,96.38
2023-05-08T21:41:17.645Z,95.16
2023-05-08T21:43:50.763Z,94.43
2023-05-08T21:46:23.601Z,99.94
2023-05-08T21:48:56.569Z,98.24
2023-05-08T21:51:29.476Z,96.69
2023-05-08T21:54:02.539Z,95.60
2023-05-08T21:56:36.808Z,100.00
2023-05-08T21:59:09.809Z,97.80
2023-05-08T22:01:42.665Z,99.47
2023-05-08T22:04:15.887Z,100.00
2023-05-08T22:06:48.753Z,100.00
2023-05-08T22:09:21.723Z,99.74
2023-05-08T22:11:55.901Z,97.21
2023-05-08T22:14:28.857Z,97.01
2023-05-08T22:17:01.947Z,98.98
2023-05-08T22:19:34.748Z,98.87
2023-05-08T22:22:07.645Z,96.65
2023-05-08T22:24:40.872Z,97.80
2023-05-08T22:27:15.030Z,98.55
2023-05-08T22:29:47.840Z,100.00
2023-05-08T22:32:20.746Z,98.01
2023-05-08T22:34:53.600Z,100.00
2023-05-08T22:37:26.452Z,99.24
2023-05-08T22:39:59.557Z,98.10
2023-05-08T22:42:33.882Z,99.77
2023-05-08T22:45:07.552Z,99.20
2023-05-08T22:47:40.858Z,99.44
2023-05-08T22:50:13.737Z,100.00
2023-05-08T22:52:46.768Z,97.41
2023-05-08T22:55:21.193Z,96.87
2023-05-08T22:57:55.336Z,96.12
2023-05-08T23:00:28.232Z,94.50
2023-05-08T23:03:01.382Z,94.66
2023-05-08T23:05:34.280Z,98.27
2023-05-08T23:08:07.265Z,98.02
2023-05-08T23:10:40.391Z,100.00
2023-05-08T23:13:14.661Z,99.66
2023-05-08T23:15:47.642Z,97.67
2023-05-08T23:18:20.458Z,98.18
2023-05-08T23:20:53.245Z,98.60
2023-05-08T23:23:26.076Z,99.00
2023-05-08T23:26:01.153Z,100.00
2023-05-08T23:28:50.263Z,99.13
2023-05-08T23:31:37.980Z,99.59
2023-05-08T23:34:25.671Z,96.80
2023-05-08T23:37:13.377Z,100.00
2023-05-08T23:39:46.112Z,98.62
2023-05-08T23:42:20.476Z,97.90
2023-05-08T23:44:54.943Z,99.70
2023-05-08T23:47:27.947Z,100.00
2023-05-08T23:50:01.165Z,100.00
2023-05-08T23:52:33.955Z,100.00
2023-05-08T23:55:07.354Z,99.06
2023-05-08T23:57:41.291Z,98.79
